PWSweather.com
Personal Weather Stations
Station Observations
KVAGLENALL
West Henrico, Glen Allen, VA 23060-6503

West HenricoGlen Allen, VA 23060-6503

Lat: 37.6554, Lon: -77.5693

Elevation: 273

Station Type: Davis Vantage Pro II

Latest ConditionsUpdated 9:30:24 PM EDT Wednesday, Oct 22, 2014
Currently Today's Max Today's Min Today's Average
Temperature 51.9°F11.1°C 58.6°F14.8°C 49.9°F9.9°C 53.1°F11.7°C
Dew Point 46.7°F8.2°C 53.8°F12.1°C 46.7°F8.2°C 49.9°F9.9°C
Winds 4.0 mph NW6.4 kmh NW 20.0 mph N32.2 kmh N - 2.9 mph 4.7 kmh
Wind Gusts 5.0 mph8.0 kmh 24.0 mph38.6 kmh - -
Humidity 82% 96% 77% 89%
Pressure 29.97 in1014.9 mb 29.97 in1014.9 mb 29.86 in1011.2 mb -
Hour Temp Dew Point Humidity Winds Wind Gusts Pressure Precip Precip Rate Daily Precip Total
09:30 PM 51.9°F11.1°C 46.7°F8.2°C 82% 4.0 mph NW6.4 kmh NW 5.0 mph8.0 kmh 29.97 in1014.9 mb 0.00 in0.0 mm 0.00 in/hr0.0 mm/hr 0.33 in8.4 mm
09:15 PM 52.0°F11.1°C 46.8°F8.2°C 82% 4.0 mph NE6.4 kmh NE 4.0 mph6.4 kmh 29.97 in1014.9 mb 0.00 in0.0 mm 0.00 in/hr0.0 mm/hr 0.33 in8.4 mm
09:00 PM 52.2°F11.2°C 46.7°F8.2°C 81% Calm Calm 10.0 mph16.1 kmh 29.96 in1014.6 mb 0.00 in0.0 mm 0.00 in/hr0.0 mm/hr 0.33 in8.4 mm
08:45 PM 52.3°F11.3°C 46.8°F8.2°C 81% 2.0 mph ENE3.2 kmh ENE 3.0 mph4.8 kmh 29.96 in1014.6 mb 0.00 in0.0 mm 0.00 in/hr0.0 mm/hr 0.33 in8.4 mm
08:30 PM 53.2°F11.8°C 47.0°F8.3°C 79% Calm Calm 12.0 mph19.3 kmh 29.95 in1014.2 mb 0.00 in0.0 mm 0.00 in/hr0.0 mm/hr 0.33 in8.4 mm
08:15 PM 53.2°F11.8°C 47.6°F8.7°C 81% Calm Calm 2.0 mph3.2 kmh 29.96 in1014.6 mb 0.00 in0.0 mm 0.00 in/hr0.0 mm/hr 0.33 in8.4 mm
08:00 PM 53.8°F12.1°C 47.2°F8.4°C 78% Calm Calm 7.0 mph11.3 kmh 29.95 in1014.2 mb 0.00 in0.0 mm 0.00 in/hr0.0 mm/hr 0.33 in8.4 mm
07:45 PM 54.5°F12.5°C 47.5°F8.6°C 77% 3.0 mph N4.8 kmh N 9.0 mph14.5 kmh 29.95 in1014.2 mb 0.00 in0.0 mm 0.00 in/hr0.0 mm/hr 0.33 in8.4 mm
07:30 PM 54.7°F12.6°C 48.1°F8.9°C 78% 4.0 mph NNW6.4 kmh NNW 6.0 mph9.7 kmh 29.95 in1014.2 mb 0.00 in0.0 mm 0.00 in/hr0.0 mm/hr 0.33 in8.4 mm
07:15 PM 54.5°F12.5°C 48.2°F9.0°C 79% 1.0 mph S1.6 kmh S 9.0 mph14.5 kmh 29.95 in1014.2 mb 0.00 in0.0 mm 0.00 in/hr0.0 mm/hr 0.33 in8.4 mm
07:00 PM 54.7°F12.6°C 48.4°F9.1°C 79% Calm Calm 5.0 mph8.0 kmh 29.95 in1014.2 mb 0.00 in0.0 mm 0.00 in/hr0.0 mm/hr 0.33 in8.4 mm
06:45 PM 54.7°F12.6°C 48.4°F9.1°C 79% 10.0 mph N16.1 kmh N 10.0 mph16.1 kmh 29.95 in1014.2 mb 0.00 in0.0 mm 0.00 in/hr0.0 mm/hr 0.33 in8.4 mm
06:30 PM 54.5°F12.5°C 48.9°F9.4°C 81% 2.0 mph NE3.2 kmh NE 9.0 mph14.5 kmh 29.95 in1014.2 mb 0.00 in0.0 mm 0.00 in/hr0.0 mm/hr 0.33 in8.4 mm
06:15 PM 54.5°F12.5°C 48.9°F9.4°C 81% 1.0 mph N1.6 kmh N 8.0 mph12.9 kmh 29.94 in1013.9 mb 0.03 in0.8 mm 0.00 in/hr0.0 mm/hr 0.33 in8.4 mm
06:00 PM 54.7°F12.6°C 49.1°F9.5°C 81% 1.0 mph N1.6 kmh N 14.0 mph22.5 kmh 29.94 in1013.9 mb 0.03 in0.8 mm 0.00 in/hr0.0 mm/hr 0.33 in8.4 mm
05:45 PM 54.8°F12.7°C 49.5°F9.7°C 82% 3.0 mph N4.8 kmh N 6.0 mph9.7 kmh 29.94 in1013.9 mb 0.03 in0.8 mm 0.00 in/hr0.0 mm/hr 0.33 in8.4 mm
05:30 PM 55.0°F12.8°C 49.7°F9.8°C 82% 4.0 mph NNE6.4 kmh NNE 14.0 mph22.5 kmh 29.94 in1013.9 mb 0.03 in0.8 mm 0.12 in/hr3.0 mm/hr 0.33 in8.4 mm
05:15 PM 55.1°F12.8°C 49.8°F9.9°C 82% 1.0 mph NE1.6 kmh NE 15.0 mph24.1 kmh 29.94 in1013.9 mb 0.00 in0.0 mm 0.00 in/hr0.0 mm/hr 0.30 in7.6 mm
05:00 PM 55.3°F12.9°C 49.3°F9.6°C 80% 5.0 mph NE8.0 kmh NE 17.0 mph27.4 kmh 29.94 in1013.9 mb 0.00 in0.0 mm 0.00 in/hr0.0 mm/hr 0.30 in7.6 mm
04:45 PM 55.4°F13.0°C 50.1°F10.1°C 82% 13.0 mph NNW20.9 kmh NNW 15.0 mph24.1 kmh 29.94 in1013.9 mb 0.00 in0.0 mm 0.00 in/hr0.0 mm/hr 0.30 in7.6 mm
04:30 PM 55.9°F13.3°C 49.6°F9.8°C 79% 7.0 mph N11.3 kmh N 18.0 mph29.0 kmh 29.93 in1013.5 mb 0.00 in0.0 mm 0.00 in/hr0.0 mm/hr 0.30 in7.6 mm
04:15 PM 55.7°F13.2°C 49.4°F9.7°C 79% 10.0 mph N16.1 kmh N 12.0 mph19.3 kmh 29.94 in1013.9 mb 0.00 in0.0 mm 0.00 in/hr0.0 mm/hr 0.30 in7.6 mm
04:00 PM 55.9°F13.3°C 49.2°F9.6°C 78% 7.0 mph NE11.3 kmh NE 18.0 mph29.0 kmh 29.93 in1013.5 mb 0.00 in0.0 mm 0.00 in/hr0.0 mm/hr 0.30 in7.6 mm
03:45 PM 55.9°F13.3°C 49.2°F9.6°C 78% 20.0 mph N32.2 kmh N 24.0 mph38.6 kmh 29.93 in1013.5 mb 0.00 in0.0 mm 0.00 in/hr0.0 mm/hr 0.30 in7.6 mm
03:30 PM 55.9°F13.3°C 49.9°F9.9°C 80% 6.0 mph NE9.7 kmh NE 13.0 mph20.9 kmh 29.93 in1013.5 mb 0.00 in0.0 mm 0.00 in/hr0.0 mm/hr 0.30 in7.6 mm
03:15 PM 56.2°F13.4°C 49.9°F9.9°C 79% 10.0 mph NNE16.1 kmh NNE 13.0 mph20.9 kmh 29.92 in1013.2 mb 0.00 in0.0 mm 0.00 in/hr0.0 mm/hr 0.30 in7.6 mm
03:00 PM 57.5°F14.2°C 51.1°F10.6°C 79% 1.0 mph N1.6 kmh N 18.0 mph29.0 kmh 29.92 in1013.2 mb 0.00 in0.0 mm 0.00 in/hr0.0 mm/hr 0.30 in7.6 mm
02:45 PM 58.6°F14.8°C 53.2°F11.8°C 82% 5.0 mph N8.0 kmh N 11.0 mph17.7 kmh 29.92 in1013.2 mb 0.01 in0.3 mm 0.00 in/hr0.0 mm/hr 0.30 in7.6 mm
02:30 PM 56.9°F13.8°C 53.8°F12.1°C 89% Calm Calm 9.0 mph14.5 kmh 29.92 in1013.2 mb 0.01 in0.3 mm 0.00 in/hr0.0 mm/hr 0.30 in7.6 mm
02:15 PM 55.3°F12.9°C 53.1°F11.7°C 92% 7.0 mph N11.3 kmh N 7.0 mph11.3 kmh 29.92 in1013.2 mb 0.01 in0.3 mm 0.00 in/hr0.0 mm/hr 0.30 in7.6 mm
02:00 PM 54.8°F12.7°C 52.9°F11.6°C 93% 1.0 mph NW1.6 kmh NW 7.0 mph11.3 kmh 29.92 in1013.2 mb 0.01 in0.3 mm 0.00 in/hr0.0 mm/hr 0.30 in7.6 mm
01:45 PM 54.7°F12.6°C 52.8°F11.6°C 93% 4.0 mph NNE6.4 kmh NNE 5.0 mph8.0 kmh 29.92 in1013.2 mb 0.02 in0.5 mm 0.04 in/hr1.0 mm/hr 0.30 in7.6 mm
01:30 PM 54.7°F12.6°C 53.4°F11.9°C 95% 4.0 mph E6.4 kmh E 7.0 mph11.3 kmh 29.92 in1013.2 mb 0.01 in0.3 mm 0.00 in/hr0.0 mm/hr 0.29 in7.4 mm
01:15 PM 54.2°F12.3°C 53.2°F11.8°C 96% Calm Calm 3.0 mph4.8 kmh 29.92 in1013.2 mb 0.03 in0.8 mm 0.00 in/hr0.0 mm/hr 0.29 in7.4 mm
01:00 PM 53.8°F12.1°C 52.8°F11.6°C 96% 1.0 mph N1.6 kmh N 5.0 mph8.0 kmh 29.92 in1013.2 mb 0.03 in0.8 mm 0.00 in/hr0.0 mm/hr 0.29 in7.4 mm
12:45 PM 53.5°F11.9°C 52.5°F11.4°C 96% Calm Calm 4.0 mph6.4 kmh 29.93 in1013.5 mb 0.07 in1.8 mm 0.04 in/hr1.0 mm/hr 0.29 in7.4 mm
12:30 PM 53.3°F11.8°C 52.3°F11.3°C 96% 6.0 mph NNW9.7 kmh NNW 6.0 mph9.7 kmh 29.93 in1013.5 mb 0.06 in1.5 mm 0.00 in/hr0.0 mm/hr 0.28 in7.1 mm
12:15 PM 53.1°F11.7°C 52.1°F11.2°C 96% 3.0 mph NE4.8 kmh NE 7.0 mph11.3 kmh 29.93 in1013.5 mb 0.12 in3.0 mm 0.04 in/hr1.0 mm/hr 0.28 in7.1 mm
12:00 PM 52.8°F11.6°C 51.8°F11.0°C 96% 2.0 mph NW3.2 kmh NW 6.0 mph9.7 kmh 29.93 in1013.5 mb 0.11 in2.8 mm 0.00 in/hr0.0 mm/hr 0.27 in6.9 mm
11:45 AM 52.3°F11.3°C 51.3°F10.7°C 96% 3.0 mph E4.8 kmh E 9.0 mph14.5 kmh 29.93 in1013.5 mb 0.16 in4.1 mm 0.12 in/hr3.0 mm/hr 0.27 in6.9 mm
11:30 AM 52.3°F11.3°C 51.3°F10.7°C 96% Calm Calm 9.0 mph14.5 kmh 29.93 in1013.5 mb 0.13 in3.3 mm 0.04 in/hr1.0 mm/hr 0.24 in6.1 mm
11:15 AM 52.5°F11.4°C 51.2°F10.7°C 95% 3.0 mph NE4.8 kmh NE 10.0 mph16.1 kmh 29.93 in1013.5 mb 0.12 in3.0 mm 0.12 in/hr3.0 mm/hr 0.23 in5.8 mm
11:00 AM 52.8°F11.6°C 51.5°F10.8°C 95% 6.0 mph NNE9.7 kmh NNE 7.0 mph11.3 kmh 29.92 in1013.2 mb 0.09 in2.3 mm 0.05 in/hr1.3 mm/hr 0.20 in5.1 mm
10:45 AM 52.9°F11.6°C 51.9°F11.1°C 96% Calm Calm 11.0 mph17.7 kmh 29.92 in1013.2 mb 0.05 in1.3 mm 0.08 in/hr2.0 mm/hr 0.16 in4.1 mm
10:30 AM 52.6°F11.4°C 51.6°F10.9°C 96% 6.0 mph NE9.7 kmh NE 6.0 mph9.7 kmh 29.93 in1013.5 mb 0.03 in0.8 mm 0.00 in/hr0.0 mm/hr 0.14 in3.6 mm
10:15 AM 52.3°F11.3°C 51.3°F10.7°C 96% Calm Calm 5.0 mph8.0 kmh 29.93 in1013.5 mb 0.03 in0.8 mm 0.04 in/hr1.0 mm/hr 0.14 in3.6 mm
10:00 AM 52.2°F11.2°C 51.2°F10.7°C 96% 5.0 mph N8.0 kmh N 9.0 mph14.5 kmh 29.92 in1013.2 mb 0.02 in0.5 mm 0.00 in/hr0.0 mm/hr 0.13 in3.3 mm
09:45 AM 51.9°F11.1°C 50.9°F10.5°C 96% 9.0 mph NNW14.5 kmh NNW 11.0 mph17.7 kmh 29.92 in1013.2 mb 0.04 in1.0 mm 0.00 in/hr0.0 mm/hr 0.13 in3.3 mm
09:30 AM 51.7°F10.9°C 50.7°F10.4°C 96% Calm Calm 9.0 mph14.5 kmh 29.92 in1013.2 mb 0.04 in1.0 mm 0.00 in/hr0.0 mm/hr 0.13 in3.3 mm
09:15 AM 51.7°F10.9°C 50.7°F10.4°C 96% 1.0 mph SSW1.6 kmh SSW 6.0 mph9.7 kmh 29.91 in1012.9 mb 0.07 in1.8 mm 0.04 in/hr1.0 mm/hr 0.13 in3.3 mm
09:00 AM 51.4°F10.8°C 50.4°F10.2°C 96% 4.0 mph N6.4 kmh N 13.0 mph20.9 kmh 29.91 in1012.9 mb 0.06 in1.5 mm 0.00 in/hr0.0 mm/hr 0.12 in3.0 mm
08:45 AM 51.3°F10.7°C 50.3°F10.2°C 96% 3.0 mph N4.8 kmh N 11.0 mph17.7 kmh 29.91 in1012.9 mb 0.08 in2.0 mm 0.04 in/hr1.0 mm/hr 0.12 in3.0 mm
08:30 AM 51.3°F10.7°C 50.3°F10.2°C 96% 4.0 mph N6.4 kmh N 8.0 mph12.9 kmh 29.90 in1012.5 mb 0.07 in1.8 mm 0.08 in/hr2.0 mm/hr 0.11 in2.8 mm
08:15 AM 51.3°F10.7°C 50.0°F10.0°C 95% Calm Calm 6.0 mph9.7 kmh 29.90 in1012.5 mb 0.05 in1.3 mm 0.08 in/hr2.0 mm/hr 0.09 in2.3 mm
08:00 AM 51.3°F10.7°C 50.0°F10.0°C 95% Calm Calm 7.0 mph11.3 kmh 29.89 in1012.2 mb 0.03 in0.8 mm 0.03 in/hr0.8 mm/hr 0.07 in1.8 mm
07:45 AM 51.3°F10.7°C 49.8°F9.9°C 94% 7.0 mph N11.3 kmh N 7.0 mph11.3 kmh 29.89 in1012.2 mb 0.01 in0.3 mm 0.04 in/hr1.0 mm/hr 0.05 in1.3 mm
07:30 AM 51.4°F10.8°C 50.1°F10.1°C 95% 4.0 mph N6.4 kmh N 4.0 mph6.4 kmh 29.89 in1012.2 mb 0.00 in0.0 mm 0.00 in/hr0.0 mm/hr 0.04 in1.0 mm
07:15 AM 51.4°F10.8°C 49.9°F9.9°C 94% 9.0 mph NW14.5 kmh NW 9.0 mph14.5 kmh 29.89 in1012.2 mb 0.00 in0.0 mm 0.00 in/hr0.0 mm/hr 0.04 in1.0 mm
06:30 AM 51.3°F10.7°C 50.0°F10.0°C 95% 2.0 mph NNW3.2 kmh NNW 2.0 mph3.2 kmh 29.88 in1011.9 mb 0.03 in0.8 mm 0.00 in/hr0.0 mm/hr 0.04 in1.0 mm
06:15 AM 51.4°F10.8°C 50.1°F10.1°C 95% Calm Calm 2.0 mph3.2 kmh 29.87 in1011.5 mb 0.04 in1.0 mm 0.00 in/hr0.0 mm/hr 0.04 in1.0 mm
06:00 AM 51.4°F10.8°C 49.9°F9.9°C 94% 1.0 mph NE1.6 kmh NE 3.0 mph4.8 kmh 29.88 in1011.9 mb 0.04 in1.0 mm 0.03 in/hr0.8 mm/hr 0.04 in1.0 mm
05:45 AM 51.6°F10.9°C 50.1°F10.1°C 94% 3.0 mph NE4.8 kmh NE 3.0 mph4.8 kmh 29.87 in1011.5 mb 0.02 in0.5 mm 0.04 in/hr1.0 mm/hr 0.02 in0.5 mm
05:30 AM 51.7°F10.9°C 49.9°F9.9°C 93% Calm Calm 4.0 mph6.4 kmh 29.87 in1011.5 mb 0.01 in0.3 mm 0.04 in/hr1.0 mm/hr 0.01 in0.3 mm
05:15 AM 51.9°F11.1°C 49.8°F9.9°C 92% Calm Calm 1.0 mph1.6 kmh 29.87 in1011.5 mb 0.00 in0.0 mm 0.00 in/hr0.0 mm/hr 0.00 in0.0 mm
05:00 AM 52.0°F11.1°C 49.6°F9.8°C 91% Calm Calm 5.0 mph8.0 kmh 29.87 in1011.5 mb 0.00 in0.0 mm 0.00 in/hr0.0 mm/hr 0.00 in0.0 mm
04:45 AM 52.0°F11.1°C 49.6°F9.8°C 91% 5.0 mph W8.0 kmh W 5.0 mph8.0 kmh 29.87 in1011.5 mb 0.00 in0.0 mm 0.00 in/hr0.0 mm/hr 0.00 in0.0 mm
04:30 AM 52.3°F11.3°C 49.3°F9.6°C 89% Calm Calm 2.0 mph3.2 kmh 29.87 in1011.5 mb 0.00 in0.0 mm 0.00 in/hr0.0 mm/hr 0.00 in0.0 mm
04:15 AM 52.5°F11.4°C 49.2°F9.6°C 88% Calm Calm 3.0 mph4.8 kmh 29.87 in1011.5 mb 0.00 in0.0 mm 0.00 in/hr0.0 mm/hr 0.00 in0.0 mm
04:00 AM 52.5°F11.4°C 48.6°F9.2°C 86% 3.0 mph SW4.8 kmh SW 5.0 mph8.0 kmh 29.86 in1011.2 mb 0.00 in0.0 mm 0.00 in/hr0.0 mm/hr 0.00 in0.0 mm
03:45 AM 52.0°F11.1°C 48.4°F9.1°C 87% Calm Calm 6.0 mph9.7 kmh 29.86 in1011.2 mb 0.00 in0.0 mm 0.00 in/hr0.0 mm/hr 0.00 in0.0 mm
03:30 AM 51.6°F10.9°C 48.6°F9.2°C 89% Calm Calm 3.0 mph4.8 kmh 29.87 in1011.5 mb 0.00 in0.0 mm 0.00 in/hr0.0 mm/hr 0.00 in0.0 mm
03:15 AM 51.1°F10.6°C 49.0°F9.4°C 92% Calm Calm 4.0 mph6.4 kmh 29.87 in1011.5 mb 0.00 in0.0 mm 0.00 in/hr0.0 mm/hr 0.00 in0.0 mm
03:00 AM 50.5°F10.3°C 49.0°F9.4°C 94% Calm Calm 4.0 mph6.4 kmh 29.87 in1011.5 mb 0.00 in0.0 mm 0.00 in/hr0.0 mm/hr 0.00 in0.0 mm
02:45 AM 49.9°F9.9°C 48.1°F8.9°C 93% Calm Calm 3.0 mph4.8 kmh 29.87 in1011.5 mb 0.00 in0.0 mm 0.00 in/hr0.0 mm/hr 0.00 in0.0 mm
02:30 AM 50.4°F10.2°C 48.3°F9.1°C 92% Calm Calm 2.0 mph3.2 kmh 29.86 in1011.2 mb 0.00 in0.0 mm 0.00 in/hr0.0 mm/hr 0.00 in0.0 mm
02:15 AM 51.0°F10.6°C 48.6°F9.2°C 91% 2.0 mph N3.2 kmh N 6.0 mph9.7 kmh 29.86 in1011.2 mb 0.00 in0.0 mm 0.00 in/hr0.0 mm/hr 0.00 in0.0 mm
02:00 AM 51.3°F10.7°C 48.9°F9.4°C 91% 2.0 mph N3.2 kmh N 9.0 mph14.5 kmh 29.87 in1011.5 mb 0.00 in0.0 mm 0.00 in/hr0.0 mm/hr 0.00 in0.0 mm
01:45 AM 51.4°F10.8°C 49.6°F9.8°C 93% 1.0 mph N1.6 kmh N 5.0 mph8.0 kmh 29.87 in1011.5 mb 0.00 in0.0 mm 0.00 in/hr0.0 mm/hr 0.00 in0.0 mm
01:30 AM 51.1°F10.6°C 49.3°F9.6°C 93% 1.0 mph NNE1.6 kmh NNE 5.0 mph8.0 kmh 29.88 in1011.9 mb 0.00 in0.0 mm 0.00 in/hr0.0 mm/hr 0.00 in0.0 mm
01:15 AM 51.3°F10.7°C 49.2°F9.6°C 92% Calm Calm 1.0 mph1.6 kmh 29.88 in1011.9 mb 0.00 in0.0 mm 0.00 in/hr0.0 mm/hr 0.00 in0.0 mm
01:00 AM 51.6°F10.9°C 49.2°F9.6°C 91% Calm Calm -- 29.89 in1012.2 mb 0.00 in0.0 mm 0.00 in/hr0.0 mm/hr 0.00 in0.0 mm
12:45 AM 52.5°F11.4°C 49.5°F9.7°C 89% Calm Calm 1.0 mph1.6 kmh 29.89 in1012.2 mb 0.00 in0.0 mm 0.00 in/hr0.0 mm/hr 0.00 in0.0 mm
12:30 AM 53.2°F11.8°C 49.9°F9.9°C 88% Calm Calm 6.0 mph9.7 kmh 29.90 in1012.5 mb 0.00 in0.0 mm 0.00 in/hr0.0 mm/hr 0.00 in0.0 mm
12:15 AM 53.5°F11.9°C 50.2°F10.1°C 88% 7.0 mph NNE11.3 kmh NNE 7.0 mph11.3 kmh 29.90 in1012.5 mb 0.00 in0.0 mm 0.00 in/hr0.0 mm/hr 0.00 in0.0 mm
12:00 AM 53.6°F12.0°C 50.3°F10.2°C 88% 3.0 mph WNW4.8 kmh WNW 3.0 mph4.8 kmh 29.90 in1012.5 mb 0.00 in0.0 mm 0.00 in/hr0.0 mm/hr 0.00 in0.0 mm